Share

Archer City, TX

Parker Rd (KTXWICHI14) Elev 1053 ft | 33.80 °N, 98.54 °W | Change Station

Current weather conditions updated 13 minutes ago

Overcast
Overcast
58.6 °F
Feels Like 58.6 °F
N
11.4
Wind Variable Wind from SE
Sunrise 7:01 AM
Sunset 8:07 PM
Moon Waning Gibbous

Tomorrow is forecast to be Warmer than today.

Pressure 30.15 in
Visibility 5.0 miles
Clouds Mostly Cloudy 800 ft
Mostly Cloudy 1400 ft
Overcast 2900 ft
Dew Point 58 °F
Humidity 97%
Rainfall 0.00 in
Snow Depth Not available.
UV 1 out of 16
Pollen 6.90 out of 12
Air Quality Not available.
Flu Activity Local Activity
METAR KCWC 172255Z AUTO 11009KT 5SM BR BKN008 BKN014 OVC029 15/13 A3015 RMK AO2 T01470127

More Conditions Fewer Conditions

Pressure 30.15 in
Visibility 5.0 miles
Clouds Mostly Cloudy 800 ft
Mostly Cloudy 1400 ft
Overcast 2900 ft
Dew Point 58 °F
Humidity 97%
Rainfall 0.00 in
Snow Depth Not available.
UV 1 out of 16
Pollen 6.90 out of 12
Air Quality Not available.
Flu Activity Local Activity
METAR KCWC 172255Z AUTO 11009KT 5SM BR BKN008 BKN014 OVC029 15/13 A3015 RMK AO2 T01470127

More Conditions Fewer Conditions

10-Day Forecast

Almanac

Astronomy

Apr. 17, 2014 Rise Set
Actual Time 7:01 AM CDT 8:07 PM CDT
Civil Twilight 6:35 AM CDT 8:32 PM CDT
Nautical Twilight 6:05 AM CDT 9:03 PM CDT
Astronomical Twilight 5:33 AM CDT 9:34 PM CDT
Moon 10:48 PM CDT 8:39 AM CDT
Length of Visible Light 13h 56m
Length of Day
13h 05m
Tomorrow will be 1m 57s longer.
Waning Gibbous, 92% of the Moon is Illuminated
Today
Waning Gibbous
Apr 22
Last Quarter
Apr 29
New
May 6
First Quarter
May 14
Full

Today's Extremes

State Highs State Lows

Community

  • Morning Light
    Morning Light
  • New Day
    New Day
  • Lake Michigan Sunrise
    Lake Michigan Sunrise
  • sunset from izmir, narlıdere
    sunset from izmir, narlıdere
  • oregon cherry
    oregon cherry

WunderPhotos

Upload Photos

1,702,164 photos uploaded!

WunderBlogs® & News

Nearby

Snow Depth

Station Depth Elevation
No new snow has been reported.

Coastal Water Temperatures

Place Temperature
No Stations Reporting

Earthquake Activity

City Distance Mag. Time & Date
Jones, Oklahoma 155 miles 2.6 5:21 AM CDT
2014-04-12
Minimum magnitude displayed is 2.5.

Nearby Weather Stations

Station Location Temp. Dew Point Humidity Wind Precip. Elev Updated Type
Parker Rd, Wichita Falls, TX 58.6 °F 58 °F 97% SE  at  11.4 mph - / hr 1053 ft 5:56 PM CDT Normal
Southwest Prky/Rhea Rd., WICHITA FALLS, TX 59.9 °F 54 °F 81% ENE  at  8.5 mph 0.01 in / hr 984 ft 6:10 PM CDT Rapid Fire
WichitaFalls, TX 58.7 °F 54 °F 85% East  at  0.0 mph - / hr 981 ft 6:00 PM CDT Normal
Wedgewood, Wichita Falls, TX 58.6 °F 57 °F 94% South  at  7.0 mph 0.00 in / hr 938 ft 6:10 PM CDT Normal
Hirschi, Wichita Falls, TX 58.5 °F 55 °F 88% SE  at  0.0 mph 0.00 in / hr 1001 ft 6:10 PM CDT Normal

Show More Stations Show Fewer Stations

What do you think?

We're not finished. Please let us know what you like, what you don't like, and what you are still missing.